sensor_id;sensor_type;location;lat;lon;timestamp;P1;durP1;ratioP1;P2;durP2;ratioP2
44143;SDS011;68165;51.920;4.492;2023-04-06T00:00:59;16.13;;;8.10;;
44143;SDS011;68165;51.920;4.492;2023-04-06T00:03:24;16.48;;;8.02;;
44143;SDS011;68165;51.920;4.492;2023-04-06T00:05:50;19.00;;;8.55;;
44143;SDS011;68165;51.920;4.492;2023-04-06T00:08:16;16.27;;;8.18;;
44143;SDS011;68165;51.920;4.492;2023-04-06T00:10:41;15.33;;;8.20;;
44143;SDS011;68165;51.920;4.492;2023-04-06T00:13:07;21.17;;;8.57;;
44143;SDS011;68165;51.920;4.492;2023-04-06T00:15:32;18.60;;;7.72;;
44143;SDS011;68165;51.920;4.492;2023-04-06T00:17:58;16.15;;;7.80;;
44143;SDS011;68165;51.920;4.492;2023-04-06T00:20:24;17.70;;;7.93;;
44143;SDS011;68165;51.920;4.492;2023-04-06T00:22:50;16.03;;;7.90;;
44143;SDS011;68165;51.920;4.492;2023-04-06T00:25:15;18.02;;;8.07;;
44143;SDS011;68165;51.920;4.492;2023-04-06T00:27:41;17.15;;;7.97;;
44143;SDS011;68165;51.920;4.492;2023-04-06T00:30:07;18.57;;;8.67;;
44143;SDS011;68165;51.920;4.492;2023-04-06T00:32:33;15.30;;;8.05;;
44143;SDS011;68165;51.920;4.492;2023-04-06T00:34:59;15.77;;;7.90;;
44143;SDS011;68165;51.920;4.492;2023-04-06T00:37:27;16.52;;;8.35;;
44143;SDS011;68165;51.920;4.492;2023-04-06T00:39:52;19.17;;;8.77;;
44143;SDS011;68165;51.920;4.492;2023-04-06T00:42:18;18.27;;;8.10;;
44143;SDS011;68165;51.920;4.492;2023-04-06T00:44:54;19.38;;;7.88;;
44143;SDS011;68165;51.920;4.492;2023-04-06T00:47:21;18.08;;;8.05;;
44143;SDS011;68165;51.920;4.492;2023-04-06T00:49:47;14.80;;;7.15;;
44143;SDS011;68165;51.920;4.492;2023-04-06T00:52:13;15.45;;;7.90;;
44143;SDS011;68165;51.920;4.492;2023-04-06T00:54:39;16.00;;;7.72;;
44143;SDS011;68165;51.920;4.492;2023-04-06T00:57:05;15.60;;;7.53;;
44143;SDS011;68165;51.920;4.492;2023-04-06T00:59:30;15.95;;;8.32;;
44143;SDS011;68165;51.920;4.492;2023-04-06T01:01:56;15.88;;;7.78;;
44143;SDS011;68165;51.920;4.492;2023-04-06T01:04:21;15.73;;;8.07;;
44143;SDS011;68165;51.920;4.492;2023-04-06T01:14:35;14.45;;;7.57;;
44143;SDS011;68165;51.920;4.492;2023-04-06T01:17:01;16.17;;;7.85;;
44143;SDS011;68165;51.920;4.492;2023-04-06T01:19:27;17.00;;;8.25;;
44143;SDS011;68165;51.920;4.492;2023-04-06T01:21:52;16.73;;;7.95;;
44143;SDS011;68165;51.920;4.492;2023-04-06T01:34:51;17.35;;;8.45;;
44143;SDS011;68165;51.920;4.492;2023-04-06T01:37:17;17.85;;;8.23;;
44143;SDS011;68165;51.920;4.492;2023-04-06T02:23:40;21.70;;;9.07;;
44143;SDS011;68165;51.920;4.492;2023-04-06T02:26:07;17.97;;;8.90;;
44143;SDS011;68165;51.920;4.492;2023-04-06T02:28:32;19.38;;;9.00;;
44143;SDS011;68165;51.920;4.492;2023-04-06T02:30:58;21.08;;;9.60;;
44143;SDS011;68165;51.920;4.492;2023-04-06T02:33:23;20.13;;;9.45;;
44143;SDS011;68165;51.920;4.492;2023-04-06T02:35:48;19.08;;;9.30;;
44143;SDS011;68165;51.920;4.492;2023-04-06T02:38:14;23.10;;;9.73;;
44143;SDS011;68165;51.920;4.492;2023-04-06T02:40:39;18.13;;;8.95;;
44143;SDS011;68165;51.920;4.492;2023-04-06T02:43:05;21.20;;;10.00;;
44143;SDS011;68165;51.920;4.492;2023-04-06T02:45:31;20.97;;;10.57;;
44143;SDS011;68165;51.920;4.492;2023-04-06T02:47:56;21.00;;;10.07;;
44143;SDS011;68165;51.920;4.492;2023-04-06T02:50:21;21.47;;;9.73;;
44143;SDS011;68165;51.920;4.492;2023-04-06T02:52:47;22.85;;;10.15;;
44143;SDS011;68165;51.920;4.492;2023-04-06T02:55:12;19.73;;;9.43;;
44143;SDS011;68165;51.920;4.492;2023-04-06T02:57:38;18.63;;;9.07;;
44143;SDS011;68165;51.920;4.492;2023-04-06T03:00:03;18.40;;;9.37;;
44143;SDS011;68165;51.920;4.492;2023-04-06T03:02:29;22.10;;;10.23;;
44143;SDS011;68165;51.920;4.492;2023-04-06T03:17:50;21.70;;;9.98;;
44143;SDS011;68165;51.920;4.492;2023-04-06T03:20:16;22.23;;;9.90;;
44143;SDS011;68165;51.920;4.492;2023-04-06T03:22:41;22.33;;;10.80;;
44143;SDS011;68165;51.920;4.492;2023-04-06T03:25:07;23.03;;;10.63;;
44143;SDS011;68165;51.920;4.492;2023-04-06T03:27:32;20.67;;;10.50;;
44143;SDS011;68165;51.920;4.492;2023-04-06T03:29:58;22.08;;;10.35;;
44143;SDS011;68165;51.920;4.492;2023-04-06T03:32:23;20.25;;;10.52;;
44143;SDS011;68165;51.920;4.492;2023-04-06T03:34:48;20.90;;;9.50;;
44143;SDS011;68165;51.920;4.492;2023-04-06T04:31:33;22.83;;;11.60;;
44143;SDS011;68165;51.920;4.492;2023-04-06T04:33:59;24.73;;;11.13;;
44143;SDS011;68165;51.920;4.492;2023-04-06T04:36:25;24.90;;;11.60;;
44143;SDS011;68165;51.920;4.492;2023-04-06T04:38:51;24.03;;;12.50;;
44143;SDS011;68165;51.920;4.492;2023-04-06T04:41:17;25.77;;;12.02;;
44143;SDS011;68165;51.920;4.492;2023-04-06T04:43:43;23.15;;;11.48;;
44143;SDS011;68165;51.920;4.492;2023-04-06T04:46:08;24.30;;;12.60;;
44143;SDS011;68165;51.920;4.492;2023-04-06T04:48:34;26.00;;;12.87;;
44143;SDS011;68165;51.920;4.492;2023-04-06T04:51:00;23.97;;;12.17;;
44143;SDS011;68165;51.920;4.492;2023-04-06T04:53:25;24.55;;;12.25;;
44143;SDS011;68165;51.920;4.492;2023-04-06T04:55:50;25.85;;;12.52;;
44143;SDS011;68165;51.920;4.492;2023-04-06T04:58:16;25.08;;;12.13;;
44143;SDS011;68165;51.920;4.492;2023-04-06T05:00:42;28.52;;;12.93;;
44143;SDS011;68165;51.920;4.492;2023-04-06T05:03:08;27.15;;;13.07;;
44143;SDS011;68165;51.920;4.492;2023-04-06T05:05:39;27.63;;;13.10;;
44143;SDS011;68165;51.920;4.492;2023-04-06T05:08:04;26.40;;;12.90;;
44143;SDS011;68165;51.920;4.492;2023-04-06T05:10:30;27.35;;;12.75;;
44143;SDS011;68165;51.920;4.492;2023-04-06T05:12:55;28.37;;;13.43;;
44143;SDS011;68165;51.920;4.492;2023-04-06T05:15:21;27.63;;;14.20;;
44143;SDS011;68165;51.920;4.492;2023-04-06T05:17:46;29.47;;;13.83;;
44143;SDS011;68165;51.920;4.492;2023-04-06T05:20:11;27.00;;;13.70;;
44143;SDS011;68165;51.920;4.492;2023-04-06T05:22:37;34.27;;;14.37;;
44143;SDS011;68165;51.920;4.492;2023-04-06T05:25:04;29.98;;;13.93;;
44143;SDS011;68165;51.920;4.492;2023-04-06T05:27:30;27.83;;;14.45;;
44143;SDS011;68165;51.920;4.492;2023-04-06T05:29:55;27.07;;;13.87;;
44143;SDS011;68165;51.920;4.492;2023-04-06T05:32:20;29.90;;;14.33;;
44143;SDS011;68165;51.920;4.492;2023-04-06T05:34:47;30.48;;;14.75;;
44143;SDS011;68165;51.920;4.492;2023-04-06T05:37:14;29.92;;;14.35;;
44143;SDS011;68165;51.920;4.492;2023-04-06T05:39:40;29.40;;;14.93;;
44143;SDS011;68165;51.920;4.492;2023-04-06T05:42:05;32.58;;;15.43;;
44143;SDS011;68165;51.920;4.492;2023-04-06T05:44:31;30.02;;;14.57;;
44143;SDS011;68165;51.920;4.492;2023-04-06T05:46:57;30.03;;;15.77;;
44143;SDS011;68165;51.920;4.492;2023-04-06T05:49:22;32.97;;;15.93;;
44143;SDS011;68165;51.920;4.492;2023-04-06T05:51:47;34.03;;;16.60;;
44143;SDS011;68165;51.920;4.492;2023-04-06T05:54:13;37.03;;;17.13;;
44143;SDS011;68165;51.920;4.492;2023-04-06T05:56:38;33.60;;;17.00;;
44143;SDS011;68165;51.920;4.492;2023-04-06T05:59:05;33.05;;;16.02;;
44143;SDS011;68165;51.920;4.492;2023-04-06T06:01:30;32.65;;;16.40;;
44143;SDS011;68165;51.920;4.492;2023-04-06T06:03:55;35.20;;;16.70;;
44143;SDS011;68165;51.920;4.492;2023-04-06T06:06:21;33.23;;;15.67;;
44143;SDS011;68165;51.920;4.492;2023-04-06T06:08:46;31.20;;;15.47;;
44143;SDS011;68165;51.920;4.492;2023-04-06T06:11:12;31.57;;;15.63;;
44143;SDS011;68165;51.920;4.492;2023-04-06T06:13:37;31.17;;;14.60;;
44143;SDS011;68165;51.920;4.492;2023-04-06T06:16:03;30.60;;;14.90;;
44143;SDS011;68165;51.920;4.492;2023-04-06T06:31:23;31.63;;;14.93;;
44143;SDS011;68165;51.920;4.492;2023-04-06T06:33:49;32.00;;;14.98;;
44143;SDS011;68165;51.920;4.492;2023-04-06T06:36:17;30.17;;;15.32;;
44143;SDS011;68165;51.920;4.492;2023-04-06T06:38:43;28.70;;;15.02;;
44143;SDS011;68165;51.920;4.492;2023-04-06T06:41:08;29.55;;;14.13;;
44143;SDS011;68165;51.920;4.492;2023-04-06T06:43:34;29.73;;;14.43;;
44143;SDS011;68165;51.920;4.492;2023-04-06T06:45:59;29.47;;;14.97;;
44143;SDS011;68165;51.920;4.492;2023-04-06T06:48:25;29.47;;;14.90;;
44143;SDS011;68165;51.920;4.492;2023-04-06T06:50:50;28.73;;;14.37;;
44143;SDS011;68165;51.920;4.492;2023-04-06T06:53:15;28.33;;;14.43;;
44143;SDS011;68165;51.920;4.492;2023-04-06T06:55:41;30.83;;;14.07;;
44143;SDS011;68165;51.920;4.492;2023-04-06T06:58:09;27.13;;;13.88;;
44143;SDS011;68165;51.920;4.492;2023-04-06T07:00:34;30.95;;;14.43;;
44143;SDS011;68165;51.920;4.492;2023-04-06T07:03:00;29.90;;;14.57;;
44143;SDS011;68165;51.920;4.492;2023-04-06T07:05:25;28.67;;;14.43;;
44143;SDS011;68165;51.920;4.492;2023-04-06T07:07:51;27.73;;;15.45;;
44143;SDS011;68165;51.920;4.492;2023-04-06T07:10:17;32.85;;;15.65;;
44143;SDS011;68165;51.920;4.492;2023-04-06T07:12:42;31.77;;;15.27;;
44143;SDS011;68165;51.920;4.492;2023-04-06T07:15:08;30.13;;;15.47;;
44143;SDS011;68165;51.920;4.492;2023-04-06T07:17:33;28.93;;;15.63;;
44143;SDS011;68165;51.920;4.492;2023-04-06T07:19:59;29.25;;;15.25;;
44143;SDS011;68165;51.920;4.492;2023-04-06T07:22:25;30.30;;;15.50;;
44143;SDS011;68165;51.920;4.492;2023-04-06T07:24:50;31.73;;;15.63;;
44143;SDS011;68165;51.920;4.492;2023-04-06T07:27:16;29.90;;;16.13;;
44143;SDS011;68165;51.920;4.492;2023-04-06T07:29:42;32.38;;;16.35;;
44143;SDS011;68165;51.920;4.492;2023-04-06T07:32:07;32.43;;;17.00;;
44143;SDS011;68165;51.920;4.492;2023-04-06T07:34:33;32.63;;;16.10;;
44143;SDS011;68165;51.920;4.492;2023-04-06T07:36:58;37.00;;;18.07;;
44143;SDS011;68165;51.920;4.492;2023-04-06T07:39:25;33.55;;;17.38;;
44143;SDS011;68165;51.920;4.492;2023-04-06T07:41:51;32.45;;;17.42;;
44143;SDS011;68165;51.920;4.492;2023-04-06T07:44:17;33.88;;;17.35;;
44143;SDS011;68165;51.920;4.492;2023-04-06T07:46:42;31.20;;;16.33;;
44143;SDS011;68165;51.920;4.492;2023-04-06T07:49:08;32.37;;;17.63;;
44143;SDS011;68165;51.920;4.492;2023-04-06T07:51:35;35.90;;;17.10;;
44143;SDS011;68165;51.920;4.492;2023-04-06T07:54:01;31.92;;;16.60;;
44143;SDS011;68165;51.920;4.492;2023-04-06T07:56:27;38.37;;;16.63;;
44143;SDS011;68165;51.920;4.492;2023-04-06T07:58:52;31.03;;;16.47;;
44143;SDS011;68165;51.920;4.492;2023-04-06T08:01:20;30.60;;;16.55;;
44143;SDS011;68165;51.920;4.492;2023-04-06T08:03:46;32.20;;;17.00;;
44143;SDS011;68165;51.920;4.492;2023-04-06T08:06:11;33.00;;;17.10;;
44143;SDS011;68165;51.920;4.492;2023-04-06T08:08:36;30.27;;;16.77;;
44143;SDS011;68165;51.920;4.492;2023-04-06T08:11:02;31.15;;;16.60;;
44143;SDS011;68165;51.920;4.492;2023-04-06T08:13:28;31.65;;;17.17;;
44143;SDS011;68165;51.920;4.492;2023-04-06T08:15:53;31.73;;;16.33;;
44143;SDS011;68165;51.920;4.492;2023-04-06T08:18:19;32.07;;;16.93;;
44143;SDS011;68165;51.920;4.492;2023-04-06T08:20:44;32.00;;;16.33;;
44143;SDS011;68165;51.920;4.492;2023-04-06T08:23:10;31.03;;;16.63;;
44143;SDS011;68165;51.920;4.492;2023-04-06T08:25:36;35.97;;;17.27;;
44143;SDS011;68165;51.920;4.492;2023-04-06T08:28:02;32.53;;;17.37;;
44143;SDS011;68165;51.920;4.492;2023-04-06T08:30:28;33.23;;;17.57;;
44143;SDS011;68165;51.920;4.492;2023-04-06T08:32:54;36.33;;;18.80;;
44143;SDS011;68165;51.920;4.492;2023-04-06T08:35:20;34.13;;;17.33;;
44143;SDS011;68165;51.920;4.492;2023-04-06T08:37:45;35.63;;;18.67;;
44143;SDS011;68165;51.920;4.492;2023-04-06T09:03:28;31.05;;;14.52;;
44143;SDS011;68165;51.920;4.492;2023-04-06T09:05:56;28.98;;;14.45;;
44143;SDS011;68165;51.920;4.492;2023-04-06T09:08:23;27.35;;;12.73;;
44143;SDS011;68165;51.920;4.492;2023-04-06T09:10:48;23.53;;;11.93;;
44143;SDS011;68165;51.920;4.492;2023-04-06T09:13:14;26.55;;;12.10;;
44143;SDS011;68165;51.920;4.492;2023-04-06T09:15:40;26.75;;;11.52;;
44143;SDS011;68165;51.920;4.492;2023-04-06T09:18:06;21.20;;;10.27;;
44143;SDS011;68165;51.920;4.492;2023-04-06T09:20:32;24.58;;;10.75;;
44143;SDS011;68165;51.920;4.492;2023-04-06T09:22:58;22.40;;;11.10;;
44143;SDS011;68165;51.920;4.492;2023-04-06T09:25:24;22.30;;;11.00;;
44143;SDS011;68165;51.920;4.492;2023-04-06T09:27:58;20.92;;;10.85;;
44143;SDS011;68165;51.920;4.492;2023-04-06T09:30:25;21.95;;;11.15;;
44143;SDS011;68165;51.920;4.492;2023-04-06T09:32:52;25.42;;;11.50;;
44143;SDS011;68165;51.920;4.492;2023-04-06T09:35:19;22.50;;;11.13;;
44143;SDS011;68165;51.920;4.492;2023-04-06T09:37:45;21.45;;;10.50;;
44143;SDS011;68165;51.920;4.492;2023-04-06T09:40:12;21.73;;;11.18;;
44143;SDS011;68165;51.920;4.492;2023-04-06T09:55:43;18.97;;;9.63;;
44143;SDS011;68165;51.920;4.492;2023-04-06T09:58:22;17.48;;;9.57;;
44143;SDS011;68165;51.920;4.492;2023-04-06T10:00:55;17.20;;;8.73;;
44143;SDS011;68165;51.920;4.492;2023-04-06T10:06:06;19.50;;;9.60;;
44143;SDS011;68165;51.920;4.492;2023-04-06T10:08:36;16.70;;;9.35;;
44143;SDS011;68165;51.920;4.492;2023-04-06T10:11:06;16.85;;;9.75;;
44143;SDS011;68165;51.920;4.492;2023-04-06T10:13:32;18.27;;;9.60;;
44143;SDS011;68165;51.920;4.492;2023-04-06T10:15:59;21.75;;;9.75;;
44143;SDS011;68165;51.920;4.492;2023-04-06T10:18:26;19.90;;;9.55;;
44143;SDS011;68165;51.920;4.492;2023-04-06T10:21:04;19.35;;;9.50;;
44143;SDS011;68165;51.920;4.492;2023-04-06T10:23:35;21.67;;;9.70;;
44143;SDS011;68165;51.920;4.492;2023-04-06T10:26:01;15.38;;;9.05;;
44143;SDS011;68165;51.920;4.492;2023-04-06T10:28:31;20.92;;;10.20;;
44143;SDS011;68165;51.920;4.492;2023-04-06T10:30:59;18.85;;;9.55;;
44143;SDS011;68165;51.920;4.492;2023-04-06T10:33:26;19.80;;;9.98;;
44143;SDS011;68165;51.920;4.492;2023-04-06T10:35:52;18.58;;;9.93;;
44143;SDS011;68165;51.920;4.492;2023-04-06T10:38:20;18.20;;;9.43;;
44143;SDS011;68165;51.920;4.492;2023-04-06T10:40:47;17.27;;;9.27;;
44143;SDS011;68165;51.920;4.492;2023-04-06T10:43:22;19.75;;;9.73;;
44143;SDS011;68165;51.920;4.492;2023-04-06T10:45:57;18.58;;;9.80;;
44143;SDS011;68165;51.920;4.492;2023-04-06T10:48:35;18.13;;;9.60;;
44143;SDS011;68165;51.920;4.492;2023-04-06T10:51:06;18.52;;;10.32;;
44143;SDS011;68165;51.920;4.492;2023-04-06T10:53:33;18.15;;;9.50;;
44143;SDS011;68165;51.920;4.492;2023-04-06T10:55:59;17.83;;;9.48;;
44143;SDS011;68165;51.920;4.492;2023-04-06T10:58:26;16.05;;;9.32;;
44143;SDS011;68165;51.920;4.492;2023-04-06T11:00:52;14.88;;;8.60;;
44143;SDS011;68165;51.920;4.492;2023-04-06T11:03:19;15.88;;;8.85;;
44143;SDS011;68165;51.920;4.492;2023-04-06T11:05:45;15.52;;;9.15;;
44143;SDS011;68165;51.920;4.492;2023-04-06T11:08:36;16.63;;;8.57;;
44143;SDS011;68165;51.920;4.492;2023-04-06T11:11:09;16.25;;;9.07;;
44143;SDS011;68165;51.920;4.492;2023-04-06T11:13:41;17.33;;;8.75;;
44143;SDS011;68165;51.920;4.492;2023-04-06T11:16:13;15.57;;;8.80;;
44143;SDS011;68165;51.920;4.492;2023-04-06T11:21:18;17.10;;;8.95;;
44143;SDS011;68165;51.920;4.492;2023-04-06T11:23:45;15.77;;;8.55;;
44143;SDS011;68165;51.920;4.492;2023-04-06T11:26:13;18.38;;;9.40;;
44143;SDS011;68165;51.920;4.492;2023-04-06T11:28:42;20.02;;;9.25;;
44143;SDS011;68165;51.920;4.492;2023-04-06T11:31:11;15.68;;;8.88;;
44143;SDS011;68165;51.920;4.492;2023-04-06T11:33:37;15.70;;;8.52;;
44143;SDS011;68165;51.920;4.492;2023-04-06T11:36:03;20.38;;;9.18;;
44143;SDS011;68165;51.920;4.492;2023-04-06T11:38:30;18.17;;;8.68;;
44143;SDS011;68165;51.920;4.492;2023-04-06T11:40:56;16.73;;;9.38;;
44143;SDS011;68165;51.920;4.492;2023-04-06T11:43:28;14.70;;;8.20;;
44143;SDS011;68165;51.920;4.492;2023-04-06T11:46:01;15.48;;;8.40;;
44143;SDS011;68165;51.920;4.492;2023-04-06T11:48:28;18.23;;;8.95;;
44143;SDS011;68165;51.920;4.492;2023-04-06T11:50:55;15.63;;;8.35;;
44143;SDS011;68165;51.920;4.492;2023-04-06T11:53:22;15.75;;;8.23;;
44143;SDS011;68165;51.920;4.492;2023-04-06T11:55:47;15.75;;;8.23;;
44143;SDS011;68165;51.920;4.492;2023-04-06T11:58:13;17.23;;;8.13;;
44143;SDS011;68165;51.920;4.492;2023-04-06T12:00:38;16.52;;;8.30;;
44143;SDS011;68165;51.920;4.492;2023-04-06T12:03:04;15.53;;;8.30;;
44143;SDS011;68165;51.920;4.492;2023-04-06T12:05:29;16.77;;;8.27;;
44143;SDS011;68165;51.920;4.492;2023-04-06T12:07:56;15.93;;;8.13;;
44143;SDS011;68165;51.920;4.492;2023-04-06T12:10:22;18.13;;;9.15;;
44143;SDS011;68165;51.920;4.492;2023-04-06T12:12:48;14.50;;;8.70;;
44143;SDS011;68165;51.920;4.492;2023-04-06T12:15:13;15.73;;;8.97;;
44143;SDS011;68165;51.920;4.492;2023-04-06T12:17:38;14.77;;;8.27;;
44143;SDS011;68165;51.920;4.492;2023-04-06T12:20:04;16.83;;;8.48;;
44143;SDS011;68165;51.920;4.492;2023-04-06T12:22:30;16.98;;;8.88;;
44143;SDS011;68165;51.920;4.492;2023-04-06T12:24:56;14.98;;;8.27;;
44143;SDS011;68165;51.920;4.492;2023-04-06T12:27:21;16.55;;;8.15;;
44143;SDS011;68165;51.920;4.492;2023-04-06T12:29:47;14.98;;;7.80;;
44143;SDS011;68165;51.920;4.492;2023-04-06T12:32:12;16.67;;;8.35;;
44143;SDS011;68165;51.920;4.492;2023-04-06T12:34:38;16.97;;;8.47;;
44143;SDS011;68165;51.920;4.492;2023-04-06T12:37:03;16.55;;;8.45;;
44143;SDS011;68165;51.920;4.492;2023-04-06T12:39:29;14.13;;;7.65;;
44143;SDS011;68165;51.920;4.492;2023-04-06T12:41:55;18.33;;;8.50;;
44143;SDS011;68165;51.920;4.492;2023-04-06T12:44:21;14.93;;;8.32;;
44143;SDS011;68165;51.920;4.492;2023-04-06T12:46:46;14.40;;;8.23;;
44143;SDS011;68165;51.920;4.492;2023-04-06T12:49:13;16.73;;;8.20;;
44143;SDS011;68165;51.920;4.492;2023-04-06T12:51:38;13.70;;;7.68;;
44143;SDS011;68165;51.920;4.492;2023-04-06T12:54:04;15.32;;;7.93;;
44143;SDS011;68165;51.920;4.492;2023-04-06T12:56:31;17.52;;;8.55;;
44143;SDS011;68165;51.920;4.492;2023-04-06T12:58:56;14.47;;;8.03;;
44143;SDS011;68165;51.920;4.492;2023-04-06T13:01:21;17.70;;;8.30;;
44143;SDS011;68165;51.920;4.492;2023-04-06T13:03:47;16.10;;;7.97;;
44143;SDS011;68165;51.920;4.492;2023-04-06T13:06:12;15.80;;;8.30;;
44143;SDS011;68165;51.920;4.492;2023-04-06T13:08:39;14.98;;;7.47;;
44143;SDS011;68165;51.920;4.492;2023-04-06T13:11:05;16.67;;;8.17;;
44143;SDS011;68165;51.920;4.492;2023-04-06T13:13:33;14.18;;;7.90;;
44143;SDS011;68165;51.920;4.492;2023-04-06T15:30:40;19.00;;;11.20;;
44143;SDS011;68165;51.920;4.492;2023-04-06T15:33:07;17.85;;;10.82;;
44143;SDS011;68165;51.920;4.492;2023-04-06T15:35:33;14.32;;;9.40;;
44143;SDS011;68165;51.920;4.492;2023-04-06T15:37:59;15.27;;;10.00;;
44143;SDS011;68165;51.920;4.492;2023-04-06T15:40:26;17.23;;;10.70;;
44143;SDS011;68165;51.920;4.492;2023-04-06T15:42:51;18.00;;;10.80;;
44143;SDS011;68165;51.920;4.492;2023-04-06T15:45:17;20.38;;;11.18;;
44143;SDS011;68165;51.920;4.492;2023-04-06T15:47:43;18.38;;;10.85;;
44143;SDS011;68165;51.920;4.492;2023-04-06T15:50:09;18.27;;;10.93;;
44143;SDS011;68165;51.920;4.492;2023-04-06T15:52:36;19.80;;;11.13;;
44143;SDS011;68165;51.920;4.492;2023-04-06T15:55:03;19.48;;;11.32;;
44143;SDS011;68165;51.920;4.492;2023-04-06T15:57:30;19.88;;;12.13;;
44143;SDS011;68165;51.920;4.492;2023-04-06T15:59:56;20.50;;;12.30;;
44143;SDS011;68165;51.920;4.492;2023-04-06T16:02:25;19.20;;;11.82;;
44143;SDS011;68165;51.920;4.492;2023-04-06T16:04:54;19.90;;;12.00;;
44143;SDS011;68165;51.920;4.492;2023-04-06T16:07:21;21.40;;;11.90;;
44143;SDS011;68165;51.920;4.492;2023-04-06T16:09:47;19.63;;;12.00;;
44143;SDS011;68165;51.920;4.492;2023-04-06T16:12:12;20.93;;;12.53;;
44143;SDS011;68165;51.920;4.492;2023-04-06T16:14:38;23.10;;;12.93;;
44143;SDS011;68165;51.920;4.492;2023-04-06T16:17:03;22.30;;;12.27;;
44143;SDS011;68165;51.920;4.492;2023-04-06T16:19:29;23.83;;;12.67;;
44143;SDS011;68165;51.920;4.492;2023-04-06T16:21:54;21.52;;;12.35;;
44143;SDS011;68165;51.920;4.492;2023-04-06T16:24:21;23.10;;;13.68;;
44143;SDS011;68165;51.920;4.492;2023-04-06T16:26:48;21.47;;;13.53;;
44143;SDS011;68165;51.920;4.492;2023-04-06T16:29:14;23.80;;;13.35;;
44143;SDS011;68165;51.920;4.492;2023-04-06T16:31:42;24.05;;;13.60;;
44143;SDS011;68165;51.920;4.492;2023-04-06T16:34:13;25.10;;;14.27;;
44143;SDS011;68165;51.920;4.492;2023-04-06T16:36:39;26.33;;;14.70;;
44143;SDS011;68165;51.920;4.492;2023-04-06T16:39:08;26.40;;;14.88;;
44143;SDS011;68165;51.920;4.492;2023-04-06T16:41:34;28.70;;;15.20;;
44143;SDS011;68165;51.920;4.492;2023-04-06T16:44:00;23.70;;;14.93;;
44143;SDS011;68165;51.920;4.492;2023-04-06T16:46:32;27.63;;;15.63;;
44143;SDS011;68165;51.920;4.492;2023-04-06T16:49:00;27.77;;;16.05;;
44143;SDS011;68165;51.920;4.492;2023-04-06T16:51:26;32.28;;;17.23;;
44143;SDS011;68165;51.920;4.492;2023-04-06T16:53:52;32.63;;;17.67;;
44143;SDS011;68165;51.920;4.492;2023-04-06T16:56:18;28.90;;;17.00;;
44143;SDS011;68165;51.920;4.492;2023-04-06T16:58:45;29.50;;;17.00;;
44143;SDS011;68165;51.920;4.492;2023-04-06T17:01:18;31.65;;;17.02;;
44143;SDS011;68165;51.920;4.492;2023-04-06T17:03:43;30.75;;;16.92;;
44143;SDS011;68165;51.920;4.492;2023-04-06T17:06:11;30.42;;;17.30;;
44143;SDS011;68165;51.920;4.492;2023-04-06T17:08:37;31.55;;;17.20;;
44143;SDS011;68165;51.920;4.492;2023-04-06T17:11:02;34.63;;;18.03;;
44143;SDS011;68165;51.920;4.492;2023-04-06T17:13:27;31.67;;;18.30;;
44143;SDS011;68165;51.920;4.492;2023-04-06T17:15:53;34.80;;;19.03;;
44143;SDS011;68165;51.920;4.492;2023-04-06T17:18:18;32.70;;;17.80;;
44143;SDS011;68165;51.920;4.492;2023-04-06T17:20:44;32.93;;;18.33;;
44143;SDS011;68165;51.920;4.492;2023-04-06T17:23:11;31.17;;;18.75;;
44143;SDS011;68165;51.920;4.492;2023-04-06T17:25:36;32.05;;;17.98;;
44143;SDS011;68165;51.920;4.492;2023-04-06T17:28:02;30.65;;;18.05;;
44143;SDS011;68165;51.920;4.492;2023-04-06T17:30:27;30.60;;;18.23;;
44143;SDS011;68165;51.920;4.492;2023-04-06T17:32:53;31.20;;;17.27;;
44143;SDS011;68165;51.920;4.492;2023-04-06T17:35:18;30.73;;;17.10;;
44143;SDS011;68165;51.920;4.492;2023-04-06T17:37:45;33.33;;;18.00;;
44143;SDS011;68165;51.920;4.492;2023-04-06T17:40:10;30.70;;;16.55;;
44143;SDS011;68165;51.920;4.492;2023-04-06T17:42:36;31.63;;;17.13;;
44143;SDS011;68165;51.920;4.492;2023-04-06T17:45:02;29.23;;;16.87;;
44143;SDS011;68165;51.920;4.492;2023-04-06T17:47:27;29.57;;;16.13;;
44143;SDS011;68165;51.920;4.492;2023-04-06T17:49:59;29.85;;;16.52;;
44143;SDS011;68165;51.920;4.492;2023-04-06T17:52:26;29.20;;;16.67;;
44143;SDS011;68165;51.920;4.492;2023-04-06T17:54:52;29.35;;;16.27;;
44143;SDS011;68165;51.920;4.492;2023-04-06T17:57:19;29.98;;;15.23;;
44143;SDS011;68165;51.920;4.492;2023-04-06T17:59:44;27.40;;;15.60;;
44143;SDS011;68165;51.920;4.492;2023-04-06T18:02:10;30.50;;;17.13;;
44143;SDS011;68165;51.920;4.492;2023-04-06T18:04:35;29.52;;;16.45;;
44143;SDS011;68165;51.920;4.492;2023-04-06T18:07:01;29.63;;;15.20;;
44143;SDS011;68165;51.920;4.492;2023-04-06T18:09:29;29.73;;;15.00;;
44143;SDS011;68165;51.920;4.492;2023-04-06T18:11:55;25.15;;;13.70;;
44143;SDS011;68165;51.920;4.492;2023-04-06T18:14:22;25.17;;;13.37;;
44143;SDS011;68165;51.920;4.492;2023-04-06T18:16:48;22.40;;;12.32;;
44143;SDS011;68165;51.920;4.492;2023-04-06T18:19:14;23.47;;;11.30;;
44143;SDS011;68165;51.920;4.492;2023-04-06T18:21:41;20.85;;;10.70;;
44143;SDS011;68165;51.920;4.492;2023-04-06T18:24:07;21.15;;;9.85;;
44143;SDS011;68165;51.920;4.492;2023-04-06T18:26:33;21.30;;;9.60;;
44143;SDS011;68165;51.920;4.492;2023-04-06T18:28:58;19.98;;;8.80;;
44143;SDS011;68165;51.920;4.492;2023-04-06T18:31:24;18.13;;;7.53;;
44143;SDS011;68165;51.920;4.492;2023-04-06T18:33:50;18.33;;;7.80;;
44143;SDS011;68165;51.920;4.492;2023-04-06T18:36:15;18.40;;;7.47;;
44143;SDS011;68165;51.920;4.492;2023-04-06T18:38:42;20.07;;;7.37;;
44143;SDS011;68165;51.920;4.492;2023-04-06T18:41:10;20.25;;;7.78;;
44143;SDS011;68165;51.920;4.492;2023-04-06T18:43:35;18.00;;;7.95;;
44143;SDS011;68165;51.920;4.492;2023-04-06T18:46:01;21.93;;;8.37;;
44143;SDS011;68165;51.920;4.492;2023-04-06T18:48:28;21.02;;;7.97;;
44143;SDS011;68165;51.920;4.492;2023-04-06T18:50:54;15.88;;;6.95;;
44143;SDS011;68165;51.920;4.492;2023-04-06T18:53:23;19.20;;;7.40;;
44143;SDS011;68165;51.920;4.492;2023-04-06T18:55:49;20.17;;;7.90;;
44143;SDS011;68165;51.920;4.492;2023-04-06T18:58:15;16.88;;;7.45;;
44143;SDS011;68165;51.920;4.492;2023-04-06T19:00:41;18.35;;;7.07;;
44143;SDS011;68165;51.920;4.492;2023-04-06T19:03:06;17.92;;;7.03;;
44143;SDS011;68165;51.920;4.492;2023-04-06T19:05:32;15.83;;;7.13;;
44143;SDS011;68165;51.920;4.492;2023-04-06T19:07:57;13.00;;;6.60;;
44143;SDS011;68165;51.920;4.492;2023-04-06T19:10:23;18.30;;;6.30;;
44143;SDS011;68165;51.920;4.492;2023-04-06T19:12:50;17.63;;;6.57;;
44143;SDS011;68165;51.920;4.492;2023-04-06T19:15:15;17.45;;;5.65;;
44143;SDS011;68165;51.920;4.492;2023-04-06T19:17:41;16.97;;;6.17;;
44143;SDS011;68165;51.920;4.492;2023-04-06T19:20:07;13.87;;;5.63;;
44143;SDS011;68165;51.920;4.492;2023-04-06T19:22:34;15.02;;;5.93;;
44143;SDS011;68165;51.920;4.492;2023-04-06T19:25:01;13.23;;;5.13;;
44143;SDS011;68165;51.920;4.492;2023-04-06T19:27:27;18.27;;;5.07;;
44143;SDS011;68165;51.920;4.492;2023-04-06T19:29:54;14.77;;;5.20;;
44143;SDS011;68165;51.920;4.492;2023-04-06T19:32:19;18.70;;;6.30;;
44143;SDS011;68165;51.920;4.492;2023-04-06T19:34:45;16.43;;;5.07;;
44143;SDS011;68165;51.920;4.492;2023-04-06T19:37:12;15.00;;;4.73;;
44143;SDS011;68165;51.920;4.492;2023-04-06T19:39:37;15.63;;;4.90;;
44143;SDS011;68165;51.920;4.492;2023-04-06T19:42:04;15.43;;;4.88;;